Santiago de Cuba, Cuba
Current Conditions -  °F | °C
As of 5:51 AM on Sunday 25 Jan 2015 (Local Time) from MUCU Reporting Station
Few Clouds Few Clouds  
Wind Chill: 70°   Ceiling: Unl
Heat Index: 70°   Visibility: 6mi
Dew Point: 64°   Wind: 8mph
Humidity: 83%   Direction: 360°N
Pressure: 29.97"   Gusts: NA
Location:  20.01°N, 75.82°W
Report Text: MUCU 250951Z 36007KT 9000 FEW020 21/18 Q1015
Loading
Personal Weather Stations






























Interactive Weather Map New forecast layout! Learn more

10-Day Weather Forecast

Advertisements
Track Severe Weather on mobile